sensor_id;sensor_type;location;lat;lon;timestamp;P1;durP1;ratioP1;P2;durP2;ratioP2
68229;SDS011;55048;52.220;5.160;2022-08-20T00:01:00;10.43;;;6.40;;
68229;SDS011;55048;52.220;5.160;2022-08-20T00:03:31;10.00;;;6.13;;
68229;SDS011;55048;52.220;5.160;2022-08-20T00:06:01;13.68;;;5.90;;
68229;SDS011;55048;52.220;5.160;2022-08-20T00:08:30;9.20;;;5.68;;
68229;SDS011;55048;52.220;5.160;2022-08-20T00:10:56;8.45;;;5.82;;
68229;SDS011;55048;52.220;5.160;2022-08-20T00:13:25;9.52;;;5.82;;
68229;SDS011;55048;52.220;5.160;2022-08-20T00:15:53;14.88;;;5.68;;
68229;SDS011;55048;52.220;5.160;2022-08-20T00:18:19;15.93;;;5.43;;
68229;SDS011;55048;52.220;5.160;2022-08-20T00:20:48;9.20;;;5.20;;
68229;SDS011;55048;52.220;5.160;2022-08-20T00:23:16;12.52;;;5.20;;
68229;SDS011;55048;52.220;5.160;2022-08-20T00:25:42;10.00;;;5.40;;
68229;SDS011;55048;52.220;5.160;2022-08-20T00:28:08;12.30;;;5.30;;
68229;SDS011;55048;52.220;5.160;2022-08-20T00:30:35;7.60;;;4.95;;
68229;SDS011;55048;52.220;5.160;2022-08-20T00:33:03;11.98;;;5.60;;
68229;SDS011;55048;52.220;5.160;2022-08-20T00:35:34;19.13;;;5.85;;
68229;SDS011;55048;52.220;5.160;2022-08-20T00:38:03;11.05;;;5.78;;
68229;SDS011;55048;52.220;5.160;2022-08-20T00:40:31;8.50;;;5.13;;
68229;SDS011;55048;52.220;5.160;2022-08-20T00:43:00;10.93;;;5.07;;
68229;SDS011;55048;52.220;5.160;2022-08-20T00:45:29;14.52;;;5.68;;
68229;SDS011;55048;52.220;5.160;2022-08-20T00:47:56;17.88;;;5.53;;
68229;SDS011;55048;52.220;5.160;2022-08-20T00:50:23;17.80;;;6.07;;
68229;SDS011;55048;52.220;5.160;2022-08-20T00:52:57;12.63;;;5.93;;
68229;SDS011;55048;52.220;5.160;2022-08-20T00:55:23;12.52;;;5.15;;
68229;SDS011;55048;52.220;5.160;2022-08-20T00:57:51;12.55;;;5.57;;
68229;SDS011;55048;52.220;5.160;2022-08-20T01:00:23;12.40;;;5.80;;
68229;SDS011;55048;52.220;5.160;2022-08-20T01:02:52;19.00;;;5.75;;
68229;SDS011;55048;52.220;5.160;2022-08-20T01:05:18;14.93;;;5.65;;
68229;SDS011;55048;52.220;5.160;2022-08-20T01:07:47;17.77;;;5.70;;
68229;SDS011;55048;52.220;5.160;2022-08-20T01:10:15;13.77;;;5.75;;
68229;SDS011;55048;52.220;5.160;2022-08-20T01:12:45;13.90;;;5.63;;
68229;SDS011;55048;52.220;5.160;2022-08-20T01:15:13;13.48;;;5.03;;
68229;SDS011;55048;52.220;5.160;2022-08-20T01:20:33;14.82;;;5.68;;
68229;SDS011;55048;52.220;5.160;2022-08-20T01:28:50;13.95;;;5.18;;
68229;SDS011;55048;52.220;5.160;2022-08-20T01:31:21;20.80;;;5.30;;
68229;SDS011;55048;52.220;5.160;2022-08-20T01:33:49;13.10;;;4.65;;
68229;SDS011;55048;52.220;5.160;2022-08-20T01:36:17;12.80;;;4.53;;
68229;SDS011;55048;52.220;5.160;2022-08-20T01:38:46;8.98;;;4.60;;
68229;SDS011;55048;52.220;5.160;2022-08-20T01:41:33;9.32;;;4.60;;
68229;SDS011;55048;52.220;5.160;2022-08-20T01:46:30;10.95;;;4.40;;
68229;SDS011;55048;52.220;5.160;2022-08-20T01:49:05;9.23;;;4.47;;
68229;SDS011;55048;52.220;5.160;2022-08-20T01:51:34;10.27;;;4.82;;
68229;SDS011;55048;52.220;5.160;2022-08-20T01:54:00;10.98;;;4.05;;
68229;SDS011;55048;52.220;5.160;2022-08-20T01:56:27;8.88;;;4.05;;
68229;SDS011;55048;52.220;5.160;2022-08-20T01:58:56;10.25;;;4.53;;
68229;SDS011;55048;52.220;5.160;2022-08-20T02:04:05;12.23;;;4.53;;
68229;SDS011;55048;52.220;5.160;2022-08-20T02:06:34;11.15;;;4.22;;
68229;SDS011;55048;52.220;5.160;2022-08-20T02:09:05;14.45;;;4.28;;
68229;SDS011;55048;52.220;5.160;2022-08-20T02:11:33;13.93;;;4.95;;
68229;SDS011;55048;52.220;5.160;2022-08-20T02:13:59;9.52;;;4.28;;
68229;SDS011;55048;52.220;5.160;2022-08-20T02:16:27;11.23;;;4.03;;
68229;SDS011;55048;52.220;5.160;2022-08-20T02:21:23;6.00;;;3.08;;
68229;SDS011;55048;52.220;5.160;2022-08-20T02:23:51;11.57;;;3.73;;
68229;SDS011;55048;52.220;5.160;2022-08-20T02:26:16;14.70;;;3.92;;
68229;SDS011;55048;52.220;5.160;2022-08-20T02:28:46;12.52;;;4.00;;
68229;SDS011;55048;52.220;5.160;2022-08-20T02:31:14;20.20;;;4.10;;
68229;SDS011;55048;52.220;5.160;2022-08-20T02:33:41;7.80;;;3.45;;
68229;SDS011;55048;52.220;5.160;2022-08-20T02:36:07;8.52;;;2.88;;
68229;SDS011;55048;52.220;5.160;2022-08-20T02:38:32;9.57;;;3.05;;
68229;SDS011;55048;52.220;5.160;2022-08-20T02:40:59;10.52;;;3.17;;
68229;SDS011;55048;52.220;5.160;2022-08-20T02:43:26;11.77;;;3.22;;
68229;SDS011;55048;52.220;5.160;2022-08-20T02:45:51;5.20;;;3.25;;
68229;SDS011;55048;52.220;5.160;2022-08-20T02:48:17;8.05;;;3.17;;
68229;SDS011;55048;52.220;5.160;2022-08-20T02:50:46;6.85;;;3.40;;
68229;SDS011;55048;52.220;5.160;2022-08-20T02:53:13;5.60;;;3.03;;
68229;SDS011;55048;52.220;5.160;2022-08-20T02:55:39;7.72;;;3.10;;
68229;SDS011;55048;52.220;5.160;2022-08-20T02:58:05;13.18;;;3.08;;
68229;SDS011;55048;52.220;5.160;2022-08-20T03:00:30;9.40;;;2.95;;
68229;SDS011;55048;52.220;5.160;2022-08-20T03:02:56;8.98;;;2.85;;
68229;SDS011;55048;52.220;5.160;2022-08-20T03:05:21;17.35;;;3.00;;
68229;SDS011;55048;52.220;5.160;2022-08-20T03:07:48;6.95;;;2.60;;
68229;SDS011;55048;52.220;5.160;2022-08-20T03:10:20;8.90;;;2.60;;
68229;SDS011;55048;52.220;5.160;2022-08-20T03:12:51;8.13;;;2.75;;
68229;SDS011;55048;52.220;5.160;2022-08-20T03:15:17;11.52;;;3.30;;
68229;SDS011;55048;52.220;5.160;2022-08-20T03:17:43;9.60;;;2.70;;
68229;SDS011;55048;52.220;5.160;2022-08-20T03:20:09;9.23;;;2.80;;
68229;SDS011;55048;52.220;5.160;2022-08-20T03:22:35;9.73;;;2.90;;
68229;SDS011;55048;52.220;5.160;2022-08-20T03:25:00;9.60;;;2.78;;
68229;SDS011;55048;52.220;5.160;2022-08-20T03:27:26;9.18;;;2.90;;
68229;SDS011;55048;52.220;5.160;2022-08-20T03:29:51;10.02;;;2.92;;
68229;SDS011;55048;52.220;5.160;2022-08-20T03:32:17;10.27;;;3.05;;
68229;SDS011;55048;52.220;5.160;2022-08-20T03:34:42;6.60;;;3.53;;
68229;SDS011;55048;52.220;5.160;2022-08-20T03:37:07;11.05;;;3.10;;
68229;SDS011;55048;52.220;5.160;2022-08-20T03:39:34;8.63;;;2.83;;
68229;SDS011;55048;52.220;5.160;2022-08-20T03:41:59;6.20;;;2.20;;
68229;SDS011;55048;52.220;5.160;2022-08-20T03:44:24;9.27;;;2.33;;
68229;SDS011;55048;52.220;5.160;2022-08-20T03:46:50;7.40;;;2.13;;
68229;SDS011;55048;52.220;5.160;2022-08-20T03:49:16;6.38;;;1.98;;
68229;SDS011;55048;52.220;5.160;2022-08-20T03:51:41;11.77;;;2.38;;
68229;SDS011;55048;52.220;5.160;2022-08-20T03:54:06;8.40;;;2.30;;
68229;SDS011;55048;52.220;5.160;2022-08-20T03:56:32;7.03;;;2.10;;
68229;SDS011;55048;52.220;5.160;2022-08-20T03:58:57;10.57;;;2.40;;
68229;SDS011;55048;52.220;5.160;2022-08-20T04:01:23;7.90;;;2.30;;
68229;SDS011;55048;52.220;5.160;2022-08-20T04:03:48;3.35;;;1.75;;
68229;SDS011;55048;52.220;5.160;2022-08-20T04:06:13;11.02;;;2.65;;
68229;SDS011;55048;52.220;5.160;2022-08-20T04:08:39;11.30;;;2.25;;
68229;SDS011;55048;52.220;5.160;2022-08-20T04:11:06;11.23;;;2.30;;
68229;SDS011;55048;52.220;5.160;2022-08-20T04:13:31;9.88;;;1.80;;
68229;SDS011;55048;52.220;5.160;2022-08-20T04:15:57;9.30;;;1.90;;
68229;SDS011;55048;52.220;5.160;2022-08-20T04:18:25;7.47;;;1.90;;
68229;SDS011;55048;52.220;5.160;2022-08-20T04:20:51;7.28;;;2.25;;
68229;SDS011;55048;52.220;5.160;2022-08-20T04:23:18;6.95;;;1.80;;
68229;SDS011;55048;52.220;5.160;2022-08-20T04:25:45;8.20;;;2.00;;
68229;SDS011;55048;52.220;5.160;2022-08-20T04:28:12;10.63;;;2.20;;
68229;SDS011;55048;52.220;5.160;2022-08-20T04:30:41;8.43;;;2.28;;
68229;SDS011;55048;52.220;5.160;2022-08-20T04:33:06;5.70;;;1.75;;
68229;SDS011;55048;52.220;5.160;2022-08-20T04:35:32;7.43;;;1.67;;
68229;SDS011;55048;52.220;5.160;2022-08-20T04:37:59;10.63;;;2.10;;
68229;SDS011;55048;52.220;5.160;2022-08-20T04:40:26;8.73;;;1.92;;
68229;SDS011;55048;52.220;5.160;2022-08-20T04:43:10;8.98;;;2.28;;
68229;SDS011;55048;52.220;5.160;2022-08-20T04:45:36;16.58;;;2.50;;
68229;SDS011;55048;52.220;5.160;2022-08-20T04:48:02;6.65;;;2.25;;
68229;SDS011;55048;52.220;5.160;2022-08-20T04:50:29;9.07;;;2.45;;
68229;SDS011;55048;52.220;5.160;2022-08-20T04:53:00;12.32;;;2.60;;
68229;SDS011;55048;52.220;5.160;2022-08-20T04:55:30;5.97;;;2.35;;
68229;SDS011;55048;52.220;5.160;2022-08-20T04:58:06;5.78;;;1.60;;
68229;SDS011;55048;52.220;5.160;2022-08-20T05:00:37;11.02;;;2.42;;
68229;SDS011;55048;52.220;5.160;2022-08-20T05:03:02;10.10;;;1.70;;
68229;SDS011;55048;52.220;5.160;2022-08-20T05:05:30;6.00;;;1.85;;
68229;SDS011;55048;52.220;5.160;2022-08-20T05:07:59;6.75;;;1.77;;
68229;SDS011;55048;52.220;5.160;2022-08-20T05:10:25;8.27;;;1.90;;
68229;SDS011;55048;52.220;5.160;2022-08-20T05:12:50;7.60;;;1.88;;
68229;SDS011;55048;52.220;5.160;2022-08-20T05:15:16;7.30;;;1.45;;
68229;SDS011;55048;52.220;5.160;2022-08-20T05:17:41;6.78;;;1.52;;
68229;SDS011;55048;52.220;5.160;2022-08-20T05:20:09;5.50;;;1.60;;
68229;SDS011;55048;52.220;5.160;2022-08-20T05:22:38;9.65;;;1.90;;
68229;SDS011;55048;52.220;5.160;2022-08-20T05:25:03;11.32;;;1.98;;
68229;SDS011;55048;52.220;5.160;2022-08-20T05:27:29;10.07;;;1.73;;
68229;SDS011;55048;52.220;5.160;2022-08-20T05:29:59;9.75;;;1.58;;
68229;SDS011;55048;52.220;5.160;2022-08-20T05:32:26;8.15;;;1.63;;
68229;SDS011;55048;52.220;5.160;2022-08-20T05:34:52;7.18;;;1.58;;
68229;SDS011;55048;52.220;5.160;2022-08-20T05:37:18;8.23;;;1.58;;
68229;SDS011;55048;52.220;5.160;2022-08-20T05:39:44;9.73;;;1.50;;
68229;SDS011;55048;52.220;5.160;2022-08-20T05:42:09;4.95;;;1.40;;
68229;SDS011;55048;52.220;5.160;2022-08-20T05:44:35;12.73;;;1.67;;
68229;SDS011;55048;52.220;5.160;2022-08-20T05:47:02;12.77;;;1.75;;
68229;SDS011;55048;52.220;5.160;2022-08-20T05:49:28;7.72;;;1.60;;
68229;SDS011;55048;52.220;5.160;2022-08-20T05:51:54;13.10;;;1.40;;
68229;SDS011;55048;52.220;5.160;2022-08-20T05:54:21;8.02;;;1.77;;
68229;SDS011;55048;52.220;5.160;2022-08-20T05:56:47;11.77;;;1.77;;
68229;SDS011;55048;52.220;5.160;2022-08-20T05:59:13;9.88;;;1.60;;
68229;SDS011;55048;52.220;5.160;2022-08-20T06:01:39;13.95;;;1.77;;
68229;SDS011;55048;52.220;5.160;2022-08-20T06:04:06;12.18;;;1.58;;
68229;SDS011;55048;52.220;5.160;2022-08-20T06:06:55;7.43;;;1.23;;
68229;SDS011;55048;52.220;5.160;2022-08-20T06:09:25;5.95;;;1.20;;
68229;SDS011;55048;52.220;5.160;2022-08-20T06:11:51;14.10;;;1.50;;
68229;SDS011;55048;52.220;5.160;2022-08-20T06:14:17;14.93;;;1.50;;
68229;SDS011;55048;52.220;5.160;2022-08-20T06:16:44;11.68;;;1.17;;
68229;SDS011;55048;52.220;5.160;2022-08-20T06:19:11;12.02;;;1.33;;
68229;SDS011;55048;52.220;5.160;2022-08-20T06:21:37;9.93;;;1.48;;
68229;SDS011;55048;52.220;5.160;2022-08-20T06:24:02;6.93;;;1.23;;
68229;SDS011;55048;52.220;5.160;2022-08-20T06:26:28;7.97;;;1.10;;
68229;SDS011;55048;52.220;5.160;2022-08-20T06:28:54;11.60;;;1.50;;
68229;SDS011;55048;52.220;5.160;2022-08-20T06:31:19;12.55;;;1.27;;
68229;SDS011;55048;52.220;5.160;2022-08-20T06:33:46;13.88;;;1.50;;
68229;SDS011;55048;52.220;5.160;2022-08-20T06:36:11;10.18;;;1.00;;
68229;SDS011;55048;52.220;5.160;2022-08-20T06:38:36;8.82;;;1.13;;
68229;SDS011;55048;52.220;5.160;2022-08-20T06:41:02;10.82;;;1.10;;
68229;SDS011;55048;52.220;5.160;2022-08-20T06:43:27;11.43;;;1.85;;
68229;SDS011;55048;52.220;5.160;2022-08-20T06:45:52;8.07;;;1.13;;
68229;SDS011;55048;52.220;5.160;2022-08-20T06:48:21;7.67;;;1.00;;
68229;SDS011;55048;52.220;5.160;2022-08-20T06:50:48;7.63;;;0.90;;
68229;SDS011;55048;52.220;5.160;2022-08-20T06:53:15;13.43;;;1.10;;
68229;SDS011;55048;52.220;5.160;2022-08-20T06:55:43;7.18;;;1.00;;
68229;SDS011;55048;52.220;5.160;2022-08-20T06:58:12;8.55;;;1.00;;
68229;SDS011;55048;52.220;5.160;2022-08-20T07:00:38;10.07;;;1.38;;
68229;SDS011;55048;52.220;5.160;2022-08-20T07:03:06;9.50;;;1.08;;
68229;SDS011;55048;52.220;5.160;2022-08-20T07:05:33;5.13;;;0.90;;
68229;SDS011;55048;52.220;5.160;2022-08-20T07:08:01;11.02;;;1.10;;
68229;SDS011;55048;52.220;5.160;2022-08-20T07:10:27;5.35;;;0.90;;
68229;SDS011;55048;52.220;5.160;2022-08-20T07:12:53;7.22;;;1.23;;
68229;SDS011;55048;52.220;5.160;2022-08-20T07:15:19;7.68;;;1.15;;
68229;SDS011;55048;52.220;5.160;2022-08-20T07:17:50;8.77;;;1.00;;
68229;SDS011;55048;52.220;5.160;2022-08-20T07:20:17;6.50;;;0.80;;
68229;SDS011;55048;52.220;5.160;2022-08-20T07:22:43;7.35;;;1.13;;
68229;SDS011;55048;52.220;5.160;2022-08-20T07:25:10;5.70;;;0.90;;
68229;SDS011;55048;52.220;5.160;2022-08-20T07:27:38;6.43;;;0.88;;
68229;SDS011;55048;52.220;5.160;2022-08-20T07:30:05;9.50;;;0.98;;
68229;SDS011;55048;52.220;5.160;2022-08-20T07:32:51;9.52;;;0.90;;
68229;SDS011;55048;52.220;5.160;2022-08-20T07:35:17;13.05;;;1.02;;
68229;SDS011;55048;52.220;5.160;2022-08-20T07:37:44;6.90;;;0.80;;
68229;SDS011;55048;52.220;5.160;2022-08-20T07:40:15;10.75;;;0.80;;
68229;SDS011;55048;52.220;5.160;2022-08-20T07:42:53;8.75;;;0.88;;
68229;SDS011;55048;52.220;5.160;2022-08-20T07:45:23;5.35;;;0.75;;
68229;SDS011;55048;52.220;5.160;2022-08-20T07:47:49;7.35;;;0.75;;
68229;SDS011;55048;52.220;5.160;2022-08-20T07:50:18;6.53;;;0.80;;
68229;SDS011;55048;52.220;5.160;2022-08-20T07:52:46;14.80;;;0.98;;
68229;SDS011;55048;52.220;5.160;2022-08-20T07:55:12;8.00;;;0.90;;
68229;SDS011;55048;52.220;5.160;2022-08-20T07:57:40;8.82;;;0.70;;
68229;SDS011;55048;52.220;5.160;2022-08-20T08:00:08;5.45;;;0.80;;
68229;SDS011;55048;52.220;5.160;2022-08-20T08:02:35;6.43;;;0.70;;
68229;SDS011;55048;52.220;5.160;2022-08-20T08:05:02;8.73;;;0.80;;
68229;SDS011;55048;52.220;5.160;2022-08-20T08:07:29;3.05;;;0.60;;
68229;SDS011;55048;52.220;5.160;2022-08-20T08:09:56;6.45;;;0.65;;
68229;SDS011;55048;52.220;5.160;2022-08-20T08:12:22;7.80;;;0.70;;
68229;SDS011;55048;52.220;5.160;2022-08-20T08:14:57;6.07;;;0.70;;
68229;SDS011;55048;52.220;5.160;2022-08-20T08:17:22;7.68;;;1.23;;
68229;SDS011;55048;52.220;5.160;2022-08-20T08:19:48;4.50;;;0.63;;
68229;SDS011;55048;52.220;5.160;2022-08-20T08:22:16;9.38;;;0.70;;
68229;SDS011;55048;52.220;5.160;2022-08-20T08:24:43;6.25;;;0.93;;
68229;SDS011;55048;52.220;5.160;2022-08-20T08:27:11;5.97;;;0.70;;
68229;SDS011;55048;52.220;5.160;2022-08-20T08:29:43;7.55;;;0.70;;
68229;SDS011;55048;52.220;5.160;2022-08-20T08:32:09;4.80;;;0.82;;
68229;SDS011;55048;52.220;5.160;2022-08-20T08:34:35;7.30;;;0.68;;
68229;SDS011;55048;52.220;5.160;2022-08-20T08:37:02;10.07;;;1.25;;
68229;SDS011;55048;52.220;5.160;2022-08-20T08:39:29;8.48;;;0.70;;
68229;SDS011;55048;52.220;5.160;2022-08-20T08:41:56;8.90;;;1.02;;
68229;SDS011;55048;52.220;5.160;2022-08-20T08:44:34;5.40;;;0.77;;
68229;SDS011;55048;52.220;5.160;2022-08-20T08:47:14;5.28;;;0.60;;
68229;SDS011;55048;52.220;5.160;2022-08-20T08:49:49;6.70;;;0.73;;
68229;SDS011;55048;52.220;5.160;2022-08-20T08:52:19;6.03;;;0.70;;
68229;SDS011;55048;52.220;5.160;2022-08-20T08:54:49;2.97;;;0.68;;
68229;SDS011;55048;52.220;5.160;2022-08-20T08:59:43;4.25;;;0.63;;
68229;SDS011;55048;52.220;5.160;2022-08-20T09:02:17;5.43;;;0.73;;
68229;SDS011;55048;52.220;5.160;2022-08-20T09:04:45;5.93;;;0.70;;
68229;SDS011;55048;52.220;5.160;2022-08-20T09:07:12;8.40;;;0.95;;
68229;SDS011;55048;52.220;5.160;2022-08-20T09:09:41;8.57;;;0.80;;
68229;SDS011;55048;52.220;5.160;2022-08-20T09:12:18;8.80;;;0.80;;
68229;SDS011;55048;52.220;5.160;2022-08-20T09:14:50;7.93;;;0.90;;
68229;SDS011;55048;52.220;5.160;2022-08-20T09:17:17;7.35;;;0.85;;
68229;SDS011;55048;52.220;5.160;2022-08-20T09:19:44;6.47;;;0.82;;
68229;SDS011;55048;52.220;5.160;2022-08-20T09:22:11;5.55;;;0.82;;
68229;SDS011;55048;52.220;5.160;2022-08-20T09:24:39;8.80;;;0.82;;
68229;SDS011;55048;52.220;5.160;2022-08-20T09:27:05;5.55;;;0.82;;
68229;SDS011;55048;52.220;5.160;2022-08-20T09:29:31;5.18;;;0.70;;
68229;SDS011;55048;52.220;5.160;2022-08-20T09:34:33;11.48;;;1.33;;
68229;SDS011;55048;52.220;5.160;2022-08-20T09:36:59;8.00;;;1.00;;
68229;SDS011;55048;52.220;5.160;2022-08-20T09:39:24;8.23;;;0.82;;
68229;SDS011;55048;52.220;5.160;2022-08-20T09:41:50;7.07;;;0.85;;
68229;SDS011;55048;52.220;5.160;2022-08-20T09:44:15;6.22;;;0.80;;
68229;SDS011;55048;52.220;5.160;2022-08-20T09:46:40;13.60;;;1.48;;
68229;SDS011;55048;52.220;5.160;2022-08-20T09:49:06;5.13;;;0.80;;
68229;SDS011;55048;52.220;5.160;2022-08-20T09:51:31;8.15;;;1.17;;
68229;SDS011;55048;52.220;5.160;2022-08-20T09:53:57;6.78;;;1.00;;
68229;SDS011;55048;52.220;5.160;2022-08-20T09:56:22;12.82;;;1.27;;
68229;SDS011;55048;52.220;5.160;2022-08-20T09:58:48;5.88;;;1.10;;
68229;SDS011;55048;52.220;5.160;2022-08-20T10:01:17;6.90;;;0.95;;
68229;SDS011;55048;52.220;5.160;2022-08-20T10:03:44;9.63;;;1.00;;
68229;SDS011;55048;52.220;5.160;2022-08-20T10:06:15;9.63;;;1.42;;
68229;SDS011;55048;52.220;5.160;2022-08-20T10:08:43;8.10;;;0.73;;
68229;SDS011;55048;52.220;5.160;2022-08-20T10:11:09;6.22;;;0.65;;
68229;SDS011;55048;52.220;5.160;2022-08-20T10:13:34;7.35;;;0.80;;
68229;SDS011;55048;52.220;5.160;2022-08-20T10:15:59;8.40;;;0.85;;
68229;SDS011;55048;52.220;5.160;2022-08-20T10:18:25;7.53;;;0.88;;
68229;SDS011;55048;52.220;5.160;2022-08-20T10:20:50;8.68;;;1.00;;
68229;SDS011;55048;52.220;5.160;2022-08-20T10:23:15;6.38;;;0.70;;
68229;SDS011;55048;52.220;5.160;2022-08-20T10:25:41;9.43;;;1.02;;
68229;SDS011;55048;52.220;5.160;2022-08-20T10:28:06;7.50;;;0.77;;
68229;SDS011;55048;52.220;5.160;2022-08-20T10:30:32;6.07;;;0.70;;
68229;SDS011;55048;52.220;5.160;2022-08-20T10:32:58;6.38;;;0.70;;
68229;SDS011;55048;52.220;5.160;2022-08-20T10:35:24;11.82;;;1.17;;
68229;SDS011;55048;52.220;5.160;2022-08-20T10:37:49;6.22;;;0.77;;
68229;SDS011;55048;52.220;5.160;2022-08-20T10:40:14;7.28;;;0.90;;
68229;SDS011;55048;52.220;5.160;2022-08-20T10:42:41;6.88;;;1.10;;
68229;SDS011;55048;52.220;5.160;2022-08-20T10:45:07;10.35;;;1.10;;
68229;SDS011;55048;52.220;5.160;2022-08-20T10:47:37;9.40;;;0.95;;
68229;SDS011;55048;52.220;5.160;2022-08-20T10:50:03;8.13;;;1.13;;
68229;SDS011;55048;52.220;5.160;2022-08-20T10:52:31;6.00;;;0.93;;
68229;SDS011;55048;52.220;5.160;2022-08-20T10:54:56;10.88;;;1.25;;
68229;SDS011;55048;52.220;5.160;2022-08-20T10:57:22;6.60;;;1.00;;
68229;SDS011;55048;52.220;5.160;2022-08-20T10:59:50;10.13;;;1.25;;
68229;SDS011;55048;52.220;5.160;2022-08-20T11:02:17;9.18;;;1.00;;
68229;SDS011;55048;52.220;5.160;2022-08-20T11:04:44;8.20;;;0.95;;
68229;SDS011;55048;52.220;5.160;2022-08-20T11:09:35;7.45;;;0.98;;
68229;SDS011;55048;52.220;5.160;2022-08-20T11:12:00;3.40;;;0.80;;
68229;SDS011;55048;52.220;5.160;2022-08-20T11:14:25;8.38;;;0.90;;
68229;SDS011;55048;52.220;5.160;2022-08-20T11:16:51;6.30;;;0.73;;
68229;SDS011;55048;52.220;5.160;2022-08-20T11:19:16;6.47;;;0.90;;
68229;SDS011;55048;52.220;5.160;2022-08-20T11:21:41;9.43;;;0.98;;
68229;SDS011;55048;52.220;5.160;2022-08-20T11:24:07;10.05;;;1.10;;
68229;SDS011;55048;52.220;5.160;2022-08-20T11:26:32;7.53;;;0.80;;
68229;SDS011;55048;52.220;5.160;2022-08-20T11:28:58;9.30;;;0.93;;
68229;SDS011;55048;52.220;5.160;2022-08-20T11:31:23;8.20;;;1.08;;
68229;SDS011;55048;52.220;5.160;2022-08-20T11:33:48;5.68;;;0.88;;
68229;SDS011;55048;52.220;5.160;2022-08-20T11:36:14;7.85;;;1.10;;
68229;SDS011;55048;52.220;5.160;2022-08-20T11:38:39;7.32;;;1.17;;
68229;SDS011;55048;52.220;5.160;2022-08-20T11:41:04;6.60;;;1.10;;
68229;SDS011;55048;52.220;5.160;2022-08-20T11:43:30;10.90;;;1.20;;
68229;SDS011;55048;52.220;5.160;2022-08-20T11:45:55;8.82;;;1.00;;
68229;SDS011;55048;52.220;5.160;2022-08-20T11:48:21;7.28;;;1.00;;
68229;SDS011;55048;52.220;5.160;2022-08-20T11:50:47;11.73;;;1.00;;
68229;SDS011;55048;52.220;5.160;2022-08-20T11:53:13;8.98;;;1.00;;
68229;SDS011;55048;52.220;5.160;2022-08-20T11:55:38;8.98;;;1.20;;
68229;SDS011;55048;52.220;5.160;2022-08-20T11:58:04;5.85;;;0.88;;
68229;SDS011;55048;52.220;5.160;2022-08-20T12:00:30;8.65;;;0.90;;
68229;SDS011;55048;52.220;5.160;2022-08-20T12:02:56;7.65;;;1.00;;
68229;SDS011;55048;52.220;5.160;2022-08-20T12:05:21;14.70;;;1.25;;
68229;SDS011;55048;52.220;5.160;2022-08-20T12:07:47;6.15;;;0.80;;
68229;SDS011;55048;52.220;5.160;2022-08-20T12:10:12;4.78;;;0.73;;
68229;SDS011;55048;52.220;5.160;2022-08-20T12:12:38;12.32;;;1.10;;
68229;SDS011;55048;52.220;5.160;2022-08-20T12:15:04;5.50;;;0.90;;
68229;SDS011;55048;52.220;5.160;2022-08-20T12:17:31;9.38;;;0.85;;
68229;SDS011;55048;52.220;5.160;2022-08-20T12:19:58;5.85;;;0.90;;
68229;SDS011;55048;52.220;5.160;2022-08-20T12:22:25;5.95;;;0.70;;
68229;SDS011;55048;52.220;5.160;2022-08-20T12:24:50;10.60;;;0.95;;
68229;SDS011;55048;52.220;5.160;2022-08-20T12:27:18;9.13;;;0.98;;
68229;SDS011;55048;52.220;5.160;2022-08-20T12:29:47;7.22;;;0.93;;
68229;SDS011;55048;52.220;5.160;2022-08-20T12:32:16;9.52;;;1.17;;
68229;SDS011;55048;52.220;5.160;2022-08-20T12:34:42;6.72;;;1.00;;
68229;SDS011;55048;52.220;5.160;2022-08-20T12:37:11;7.53;;;1.00;;
68229;SDS011;55048;52.220;5.160;2022-08-20T12:39:40;10.75;;;1.45;;
68229;SDS011;55048;52.220;5.160;2022-08-20T12:42:07;5.75;;;1.10;;
68229;SDS011;55048;52.220;5.160;2022-08-20T12:44:35;10.38;;;1.33;;
68229;SDS011;55048;52.220;5.160;2022-08-20T12:47:09;9.90;;;0.90;;
68229;SDS011;55048;52.220;5.160;2022-08-20T12:49:36;7.50;;;1.02;;
68229;SDS011;55048;52.220;5.160;2022-08-20T12:52:03;8.05;;;0.90;;
68229;SDS011;55048;52.220;5.160;2022-08-20T12:54:29;7.93;;;1.40;;
68229;SDS011;55048;52.220;5.160;2022-08-20T12:56:54;8.75;;;1.02;;
68229;SDS011;55048;52.220;5.160;2022-08-20T12:59:24;5.35;;;1.08;;
68229;SDS011;55048;52.220;5.160;2022-08-20T13:04:16;11.52;;;1.23;;
68229;SDS011;55048;52.220;5.160;2022-08-20T13:06:42;9.70;;;1.20;;
68229;SDS011;55048;52.220;5.160;2022-08-20T13:09:07;7.95;;;1.38;;
68229;SDS011;55048;52.220;5.160;2022-08-20T13:11:33;8.85;;;1.25;;
68229;SDS011;55048;52.220;5.160;2022-08-20T13:13:58;11.98;;;1.75;;
68229;SDS011;55048;52.220;5.160;2022-08-20T13:16:24;6.97;;;1.00;;
68229;SDS011;55048;52.220;5.160;2022-08-20T13:18:49;12.18;;;1.10;;
68229;SDS011;55048;52.220;5.160;2022-08-20T13:21:14;6.35;;;0.85;;
68229;SDS011;55048;52.220;5.160;2022-08-20T13:23:40;10.25;;;1.20;;
68229;SDS011;55048;52.220;5.160;2022-08-20T13:26:05;8.35;;;1.15;;
68229;SDS011;55048;52.220;5.160;2022-08-20T13:28:31;9.77;;;1.02;;
68229;SDS011;55048;52.220;5.160;2022-08-20T13:30:57;8.23;;;1.00;;
68229;SDS011;55048;52.220;5.160;2022-08-20T13:33:22;7.35;;;1.30;;
68229;SDS011;55048;52.220;5.160;2022-08-20T13:35:50;10.88;;;1.30;;
68229;SDS011;55048;52.220;5.160;2022-08-20T13:38:15;11.32;;;1.30;;
68229;SDS011;55048;52.220;5.160;2022-08-20T13:40:41;7.93;;;1.17;;
68229;SDS011;55048;52.220;5.160;2022-08-20T13:43:06;11.98;;;1.35;;
68229;SDS011;55048;52.220;5.160;2022-08-20T13:45:32;11.15;;;1.25;;
68229;SDS011;55048;52.220;5.160;2022-08-20T13:47:57;6.20;;;1.10;;
68229;SDS011;55048;52.220;5.160;2022-08-20T13:50:25;6.35;;;0.82;;
68229;SDS011;55048;52.220;5.160;2022-08-20T13:52:51;12.43;;;1.00;;
68229;SDS011;55048;52.220;5.160;2022-08-20T13:55:18;7.30;;;1.00;;
68229;SDS011;55048;52.220;5.160;2022-08-20T13:57:45;11.25;;;1.17;;
68229;SDS011;55048;52.220;5.160;2022-08-20T14:00:19;9.10;;;1.13;;
68229;SDS011;55048;52.220;5.160;2022-08-20T14:02:47;7.68;;;1.10;;
68229;SDS011;55048;52.220;5.160;2022-08-20T14:05:12;6.07;;;1.00;;
68229;SDS011;55048;52.220;5.160;2022-08-20T14:07:40;8.20;;;1.13;;
68229;SDS011;55048;52.220;5.160;2022-08-20T14:10:08;6.82;;;0.82;;
68229;SDS011;55048;52.220;5.160;2022-08-20T14:12:36;5.57;;;0.80;;
68229;SDS011;55048;52.220;5.160;2022-08-20T14:15:02;9.77;;;1.08;;
68229;SDS011;55048;52.220;5.160;2022-08-20T14:17:30;10.90;;;1.08;;
68229;SDS011;55048;52.220;5.160;2022-08-20T14:19:58;6.27;;;0.80;;
68229;SDS011;55048;52.220;5.160;2022-08-20T14:22:26;9.77;;;1.10;;
68229;SDS011;55048;52.220;5.160;2022-08-20T14:24:52;10.60;;;0.90;;
68229;SDS011;55048;52.220;5.160;2022-08-20T14:27:18;9.63;;;1.33;;
68229;SDS011;55048;52.220;5.160;2022-08-20T14:29:46;11.95;;;1.20;;
68229;SDS011;55048;52.220;5.160;2022-08-20T14:32:13;11.43;;;1.10;;
68229;SDS011;55048;52.220;5.160;2022-08-20T14:34:42;5.35;;;0.90;;
68229;SDS011;55048;52.220;5.160;2022-08-20T14:37:19;11.38;;;1.13;;
68229;SDS011;55048;52.220;5.160;2022-08-20T14:39:48;5.60;;;1.00;;
68229;SDS011;55048;52.220;5.160;2022-08-20T14:42:15;10.30;;;1.08;;
68229;SDS011;55048;52.220;5.160;2022-08-20T14:44:41;6.22;;;0.98;;
68229;SDS011;55048;52.220;5.160;2022-08-20T14:47:17;10.02;;;1.05;;
68229;SDS011;55048;52.220;5.160;2022-08-20T14:49:48;6.60;;;1.00;;
68229;SDS011;55048;52.220;5.160;2022-08-20T14:52:15;6.78;;;0.70;;
68229;SDS011;55048;52.220;5.160;2022-08-20T14:54:42;6.93;;;1.10;;
68229;SDS011;55048;52.220;5.160;2022-08-20T14:57:09;5.05;;;0.75;;
68229;SDS011;55048;52.220;5.160;2022-08-20T14:59:36;6.00;;;0.80;;
68229;SDS011;55048;52.220;5.160;2022-08-20T15:02:03;7.50;;;0.90;;
68229;SDS011;55048;52.220;5.160;2022-08-20T15:04:30;2.78;;;0.77;;
68229;SDS011;55048;52.220;5.160;2022-08-20T15:07:00;7.35;;;0.80;;
68229;SDS011;55048;52.220;5.160;2022-08-20T15:09:30;6.25;;;1.10;;